sensor_id;sensor_type;location;lat;lon;timestamp;P1;durP1;ratioP1;P2;durP2;ratioP2
23449;SDS011;11897;45.438;12.128;2023-07-13T00:01:45;2.78;;;1.52;;
23449;SDS011;11897;45.438;12.128;2023-07-13T00:04:15;6.43;;;2.15;;
23449;SDS011;11897;45.438;12.128;2023-07-13T00:06:42;6.55;;;2.20;;
23449;SDS011;11897;45.438;12.128;2023-07-13T00:09:10;5.38;;;2.40;;
23449;SDS011;11897;45.438;12.128;2023-07-13T00:11:37;4.88;;;2.30;;
23449;SDS011;11897;45.438;12.128;2023-07-13T00:14:04;12.00;;;2.67;;
23449;SDS011;11897;45.438;12.128;2023-07-13T00:19:00;2.58;;;1.90;;
23449;SDS011;11897;45.438;12.128;2023-07-13T00:21:26;5.47;;;2.17;;
23449;SDS011;11897;45.438;12.128;2023-07-13T00:23:53;2.17;;;1.70;;
23449;SDS011;11897;45.438;12.128;2023-07-13T00:26:20;4.97;;;1.77;;
23449;SDS011;11897;45.438;12.128;2023-07-13T00:28:47;3.00;;;1.90;;
23449;SDS011;11897;45.438;12.128;2023-07-13T00:31:14;5.18;;;1.90;;
23449;SDS011;11897;45.438;12.128;2023-07-13T00:33:41;2.38;;;1.83;;
23449;SDS011;11897;45.438;12.128;2023-07-13T00:36:12;4.35;;;2.10;;
23449;SDS011;11897;45.438;12.128;2023-07-13T00:38:41;7.15;;;1.90;;
23449;SDS011;11897;45.438;12.128;2023-07-13T00:41:08;10.13;;;2.00;;
23449;SDS011;11897;45.438;12.128;2023-07-13T00:43:35;3.70;;;1.75;;
23449;SDS011;11897;45.438;12.128;2023-07-13T00:46:10;4.55;;;1.80;;
23449;SDS011;11897;45.438;12.128;2023-07-13T00:48:37;3.17;;;1.48;;
23449;SDS011;11897;45.438;12.128;2023-07-13T00:51:04;3.83;;;1.23;;
23449;SDS011;11897;45.438;12.128;2023-07-13T00:53:32;4.95;;;1.10;;
23449;SDS011;11897;45.438;12.128;2023-07-13T00:55:59;3.30;;;1.10;;
23449;SDS011;11897;45.438;12.128;2023-07-13T00:58:27;2.22;;;1.30;;
23449;SDS011;11897;45.438;12.128;2023-07-13T01:00:56;1.77;;;1.08;;
23449;SDS011;11897;45.438;12.128;2023-07-13T01:03:23;1.50;;;0.98;;
23449;SDS011;11897;45.438;12.128;2023-07-13T01:05:50;1.65;;;0.70;;
23449;SDS011;11897;45.438;12.128;2023-07-13T01:08:19;1.95;;;0.50;;
23449;SDS011;11897;45.438;12.128;2023-07-13T01:10:54;2.47;;;1.00;;
23449;SDS011;11897;45.438;12.128;2023-07-13T01:13:21;1.13;;;0.73;;
23449;SDS011;11897;45.438;12.128;2023-07-13T01:15:49;2.22;;;0.60;;
23449;SDS011;11897;45.438;12.128;2023-07-13T01:18:17;2.67;;;0.70;;
23449;SDS011;11897;45.438;12.128;2023-07-13T01:20:51;1.38;;;0.77;;
23449;SDS011;11897;45.438;12.128;2023-07-13T01:23:19;2.33;;;0.55;;
23449;SDS011;11897;45.438;12.128;2023-07-13T01:25:47;0.82;;;0.50;;
23449;SDS011;11897;45.438;12.128;2023-07-13T01:28:14;1.35;;;0.65;;
23449;SDS011;11897;45.438;12.128;2023-07-13T01:30:42;0.30;;;0.30;;
23449;SDS011;11897;45.438;12.128;2023-07-13T01:33:10;1.83;;;0.60;;
23449;SDS011;11897;45.438;12.128;2023-07-13T01:35:37;1.50;;;0.63;;
23449;SDS011;11897;45.438;12.128;2023-07-13T01:38:05;1.35;;;0.90;;
23449;SDS011;11897;45.438;12.128;2023-07-13T01:40:33;0.60;;;0.60;;
23449;SDS011;11897;45.438;12.128;2023-07-13T01:43:01;1.30;;;0.70;;
23449;SDS011;11897;45.438;12.128;2023-07-13T01:45:28;0.50;;;0.50;;
23449;SDS011;11897;45.438;12.128;2023-07-13T01:47:54;1.85;;;0.77;;
23449;SDS011;11897;45.438;12.128;2023-07-13T01:50:21;1.92;;;0.65;;
23449;SDS011;11897;45.438;12.128;2023-07-13T01:52:48;1.55;;;0.68;;
23449;SDS011;11897;45.438;12.128;2023-07-13T01:55:16;2.38;;;0.60;;
23449;SDS011;11897;45.438;12.128;2023-07-13T01:57:43;2.28;;;0.60;;
23449;SDS011;11897;45.438;12.128;2023-07-13T02:00:10;1.42;;;0.80;;
23449;SDS011;11897;45.438;12.128;2023-07-13T02:02:46;0.52;;;0.50;;
23449;SDS011;11897;45.438;12.128;2023-07-13T02:05:13;0.65;;;0.55;;
23449;SDS011;11897;45.438;12.128;2023-07-13T02:07:40;1.35;;;0.60;;
23449;SDS011;11897;45.438;12.128;2023-07-13T02:10:07;0.40;;;0.40;;
23449;SDS011;11897;45.438;12.128;2023-07-13T02:12:35;1.58;;;0.70;;
23449;SDS011;11897;45.438;12.128;2023-07-13T02:15:02;1.17;;;0.55;;
23449;SDS011;11897;45.438;12.128;2023-07-13T02:17:29;0.57;;;0.43;;
23449;SDS011;11897;45.438;12.128;2023-07-13T02:19:55;2.15;;;0.40;;
23449;SDS011;11897;45.438;12.128;2023-07-13T02:22:22;1.17;;;0.70;;
23449;SDS011;11897;45.438;12.128;2023-07-13T02:24:49;0.75;;;0.40;;
23449;SDS011;11897;45.438;12.128;2023-07-13T02:27:17;0.98;;;0.50;;
23449;SDS011;11897;45.438;12.128;2023-07-13T02:29:45;0.95;;;0.50;;
23449;SDS011;11897;45.438;12.128;2023-07-13T02:32:12;1.17;;;0.60;;
23449;SDS011;11897;45.438;12.128;2023-07-13T02:34:40;1.20;;;0.60;;
23449;SDS011;11897;45.438;12.128;2023-07-13T02:37:07;2.10;;;0.40;;
23449;SDS011;11897;45.438;12.128;2023-07-13T02:39:34;0.47;;;0.30;;
23449;SDS011;11897;45.438;12.128;2023-07-13T02:42:02;0.65;;;0.45;;
23449;SDS011;11897;45.438;12.128;2023-07-13T02:44:29;0.85;;;0.68;;
23449;SDS011;11897;45.438;12.128;2023-07-13T02:46:57;1.27;;;0.50;;
23449;SDS011;11897;45.438;12.128;2023-07-13T02:49:24;0.65;;;0.50;;
23449;SDS011;11897;45.438;12.128;2023-07-13T02:51:51;0.60;;;0.40;;
23449;SDS011;11897;45.438;12.128;2023-07-13T02:54:18;2.15;;;0.55;;
23449;SDS011;11897;45.438;12.128;2023-07-13T02:56:45;2.05;;;0.60;;
23449;SDS011;11897;45.438;12.128;2023-07-13T02:59:11;0.98;;;0.45;;
23449;SDS011;11897;45.438;12.128;2023-07-13T03:01:38;0.55;;;0.40;;
23449;SDS011;11897;45.438;12.128;2023-07-13T03:04:07;0.68;;;0.47;;
23449;SDS011;11897;45.438;12.128;2023-07-13T03:06:34;0.70;;;0.60;;
23449;SDS011;11897;45.438;12.128;2023-07-13T03:09:02;1.33;;;0.52;;
23449;SDS011;11897;45.438;12.128;2023-07-13T03:11:31;2.05;;;0.50;;
23449;SDS011;11897;45.438;12.128;2023-07-13T03:14:18;1.33;;;0.50;;
23449;SDS011;11897;45.438;12.128;2023-07-13T03:16:44;0.93;;;0.60;;
23449;SDS011;11897;45.438;12.128;2023-07-13T03:19:12;2.25;;;0.50;;
23449;SDS011;11897;45.438;12.128;2023-07-13T03:21:43;0.40;;;0.40;;
23449;SDS011;11897;45.438;12.128;2023-07-13T03:24:10;1.77;;;0.35;;
23449;SDS011;11897;45.438;12.128;2023-07-13T03:26:38;1.17;;;0.60;;
23449;SDS011;11897;45.438;12.128;2023-07-13T03:29:05;1.00;;;0.50;;
23449;SDS011;11897;45.438;12.128;2023-07-13T03:31:34;0.82;;;0.70;;
23449;SDS011;11897;45.438;12.128;2023-07-13T03:34:01;1.70;;;0.70;;
23449;SDS011;11897;45.438;12.128;2023-07-13T03:36:31;0.60;;;0.50;;
23449;SDS011;11897;45.438;12.128;2023-07-13T03:39:02;1.67;;;0.70;;
23449;SDS011;11897;45.438;12.128;2023-07-13T03:41:36;2.40;;;0.90;;
23449;SDS011;11897;45.438;12.128;2023-07-13T03:44:03;1.75;;;0.80;;
23449;SDS011;11897;45.438;12.128;2023-07-13T03:46:30;1.20;;;0.77;;
23449;SDS011;11897;45.438;12.128;2023-07-13T03:48:57;1.00;;;0.77;;
23449;SDS011;11897;45.438;12.128;2023-07-13T03:51:23;3.45;;;1.10;;
23449;SDS011;11897;45.438;12.128;2023-07-13T03:53:52;2.70;;;1.02;;
23449;SDS011;11897;45.438;12.128;2023-07-13T03:56:20;3.13;;;0.88;;
23449;SDS011;11897;45.438;12.128;2023-07-13T03:58:47;1.20;;;0.75;;
23449;SDS011;11897;45.438;12.128;2023-07-13T04:01:17;1.90;;;0.90;;
23449;SDS011;11897;45.438;12.128;2023-07-13T04:03:44;0.63;;;0.55;;
23449;SDS011;11897;45.438;12.128;2023-07-13T04:06:13;1.50;;;1.00;;
23449;SDS011;11897;45.438;12.128;2023-07-13T04:08:40;3.08;;;0.95;;
23449;SDS011;11897;45.438;12.128;2023-07-13T04:11:08;1.60;;;0.80;;
23449;SDS011;11897;45.438;12.128;2023-07-13T04:13:35;2.13;;;1.00;;
23449;SDS011;11897;45.438;12.128;2023-07-13T04:16:02;1.25;;;0.85;;
23449;SDS011;11897;45.438;12.128;2023-07-13T04:18:29;2.53;;;0.90;;
23449;SDS011;11897;45.438;12.128;2023-07-13T04:20:55;3.35;;;0.93;;
23449;SDS011;11897;45.438;12.128;2023-07-13T04:23:22;6.38;;;1.20;;
23449;SDS011;11897;45.438;12.128;2023-07-13T04:25:52;4.18;;;1.08;;
23449;SDS011;11897;45.438;12.128;2023-07-13T04:28:20;1.77;;;0.80;;
23449;SDS011;11897;45.438;12.128;2023-07-13T04:30:47;3.17;;;0.93;;
23449;SDS011;11897;45.438;12.128;2023-07-13T04:33:14;1.75;;;0.80;;
23449;SDS011;11897;45.438;12.128;2023-07-13T04:35:42;1.33;;;0.77;;
23449;SDS011;11897;45.438;12.128;2023-07-13T04:38:09;1.70;;;1.27;;
23449;SDS011;11897;45.438;12.128;2023-07-13T04:40:36;1.33;;;0.93;;
23449;SDS011;11897;45.438;12.128;2023-07-13T04:43:03;1.33;;;0.85;;
23449;SDS011;11897;45.438;12.128;2023-07-13T04:45:32;3.03;;;1.27;;
23449;SDS011;11897;45.438;12.128;2023-07-13T04:47:58;1.02;;;0.93;;
23449;SDS011;11897;45.438;12.128;2023-07-13T04:50:25;2.97;;;1.13;;
23449;SDS011;11897;45.438;12.128;2023-07-13T04:52:52;1.30;;;1.05;;
23449;SDS011;11897;45.438;12.128;2023-07-13T04:55:19;3.40;;;1.20;;
23449;SDS011;11897;45.438;12.128;2023-07-13T04:57:46;2.90;;;1.30;;
23449;SDS011;11897;45.438;12.128;2023-07-13T05:00:13;3.55;;;1.30;;
23449;SDS011;11897;45.438;12.128;2023-07-13T05:02:43;1.35;;;1.00;;
23449;SDS011;11897;45.438;12.128;2023-07-13T05:05:10;1.33;;;1.00;;
23449;SDS011;11897;45.438;12.128;2023-07-13T05:07:36;3.08;;;1.23;;
23449;SDS011;11897;45.438;12.128;2023-07-13T05:10:03;3.35;;;1.20;;
23449;SDS011;11897;45.438;12.128;2023-07-13T05:12:30;2.25;;;1.33;;
23449;SDS011;11897;45.438;12.128;2023-07-13T05:14:57;3.70;;;1.02;;
23449;SDS011;11897;45.438;12.128;2023-07-13T05:17:24;3.92;;;1.30;;
23449;SDS011;11897;45.438;12.128;2023-07-13T05:19:52;1.27;;;1.00;;
23449;SDS011;11897;45.438;12.128;2023-07-13T05:22:18;4.50;;;1.63;;
23449;SDS011;11897;45.438;12.128;2023-07-13T05:24:45;3.75;;;1.05;;
23449;SDS011;11897;45.438;12.128;2023-07-13T05:27:12;4.10;;;1.35;;
23449;SDS011;11897;45.438;12.128;2023-07-13T05:29:39;3.30;;;1.27;;
23449;SDS011;11897;45.438;12.128;2023-07-13T05:32:06;3.35;;;1.30;;
23449;SDS011;11897;45.438;12.128;2023-07-13T05:34:32;2.50;;;1.13;;
23449;SDS011;11897;45.438;12.128;2023-07-13T05:37:00;2.40;;;1.27;;
23449;SDS011;11897;45.438;12.128;2023-07-13T05:39:27;2.80;;;1.02;;
23449;SDS011;11897;45.438;12.128;2023-07-13T05:41:54;1.92;;;1.30;;
23449;SDS011;11897;45.438;12.128;2023-07-13T05:44:21;2.40;;;1.02;;
23449;SDS011;11897;45.438;12.128;2023-07-13T05:46:47;5.63;;;1.58;;
23449;SDS011;11897;45.438;12.128;2023-07-13T05:49:14;3.60;;;1.10;;
23449;SDS011;11897;45.438;12.128;2023-07-13T05:51:41;2.53;;;1.33;;
23449;SDS011;11897;45.438;12.128;2023-07-13T05:54:09;1.55;;;1.27;;
23449;SDS011;11897;45.438;12.128;2023-07-13T05:56:35;2.10;;;1.35;;
23449;SDS011;11897;45.438;12.128;2023-07-13T05:59:02;5.05;;;1.27;;
23449;SDS011;11897;45.438;12.128;2023-07-13T06:01:29;3.55;;;1.42;;
23449;SDS011;11897;45.438;12.128;2023-07-13T06:03:56;7.53;;;1.25;;
23449;SDS011;11897;45.438;12.128;2023-07-13T06:06:23;2.15;;;1.23;;
23449;SDS011;11897;45.438;12.128;2023-07-13T06:08:49;3.60;;;1.38;;
23449;SDS011;11897;45.438;12.128;2023-07-13T06:11:18;2.35;;;1.08;;
23449;SDS011;11897;45.438;12.128;2023-07-13T06:13:45;2.65;;;1.35;;
23449;SDS011;11897;45.438;12.128;2023-07-13T06:16:12;3.80;;;1.15;;
23449;SDS011;11897;45.438;12.128;2023-07-13T06:18:39;1.73;;;1.20;;
23449;SDS011;11897;45.438;12.128;2023-07-13T06:21:07;1.52;;;1.02;;
23449;SDS011;11897;45.438;12.128;2023-07-13T06:23:34;4.68;;;1.70;;
23449;SDS011;11897;45.438;12.128;2023-07-13T06:26:00;4.00;;;1.88;;
23449;SDS011;11897;45.438;12.128;2023-07-13T06:28:29;1.40;;;1.20;;
23449;SDS011;11897;45.438;12.128;2023-07-13T06:30:56;2.45;;;1.40;;
23449;SDS011;11897;45.438;12.128;2023-07-13T06:33:23;2.90;;;1.30;;
23449;SDS011;11897;45.438;12.128;2023-07-13T06:35:50;4.05;;;1.15;;
23449;SDS011;11897;45.438;12.128;2023-07-13T06:38:16;3.75;;;0.98;;
23449;SDS011;11897;45.438;12.128;2023-07-13T06:40:43;1.65;;;1.00;;
23449;SDS011;11897;45.438;12.128;2023-07-13T06:43:10;2.80;;;1.50;;
23449;SDS011;11897;45.438;12.128;2023-07-13T06:45:43;5.88;;;1.27;;
23449;SDS011;11897;45.438;12.128;2023-07-13T06:48:12;1.83;;;1.10;;
23449;SDS011;11897;45.438;12.128;2023-07-13T06:50:39;3.03;;;1.02;;
23449;SDS011;11897;45.438;12.128;2023-07-13T06:53:06;3.03;;;1.30;;
23449;SDS011;11897;45.438;12.128;2023-07-13T06:55:32;2.60;;;1.00;;
23449;SDS011;11897;45.438;12.128;2023-07-13T06:57:59;1.42;;;0.90;;
23449;SDS011;11897;45.438;12.128;2023-07-13T07:00:27;2.60;;;1.10;;
23449;SDS011;11897;45.438;12.128;2023-07-13T07:02:55;2.92;;;1.10;;
23449;SDS011;11897;45.438;12.128;2023-07-13T07:05:22;2.22;;;1.00;;
23449;SDS011;11897;45.438;12.128;2023-07-13T07:07:49;1.13;;;1.00;;
23449;SDS011;11897;45.438;12.128;2023-07-13T07:10:16;4.60;;;1.40;;
23449;SDS011;11897;45.438;12.128;2023-07-13T07:12:42;3.40;;;1.40;;
23449;SDS011;11897;45.438;12.128;2023-07-13T07:15:09;1.98;;;1.30;;
23449;SDS011;11897;45.438;12.128;2023-07-13T07:17:36;1.40;;;0.90;;
23449;SDS011;11897;45.438;12.128;2023-07-13T07:20:04;3.22;;;1.50;;
23449;SDS011;11897;45.438;12.128;2023-07-13T07:22:31;1.45;;;0.88;;
23449;SDS011;11897;45.438;12.128;2023-07-13T07:24:58;2.92;;;1.58;;
23449;SDS011;11897;45.438;12.128;2023-07-13T07:27:24;3.70;;;1.70;;
23449;SDS011;11897;45.438;12.128;2023-07-13T07:29:51;2.22;;;1.30;;
23449;SDS011;11897;45.438;12.128;2023-07-13T07:32:18;4.75;;;1.40;;
23449;SDS011;11897;45.438;12.128;2023-07-13T07:34:45;3.38;;;1.13;;
23449;SDS011;11897;45.438;12.128;2023-07-13T07:37:13;3.35;;;1.15;;
23449;SDS011;11897;45.438;12.128;2023-07-13T07:39:40;9.30;;;1.20;;
23449;SDS011;11897;45.438;12.128;2023-07-13T07:42:07;2.13;;;1.20;;
23449;SDS011;11897;45.438;12.128;2023-07-13T07:44:33;2.47;;;1.33;;
23449;SDS011;11897;45.438;12.128;2023-07-13T07:47:00;2.92;;;1.23;;
23449;SDS011;11897;45.438;12.128;2023-07-13T07:49:27;1.85;;;1.23;;
23449;SDS011;11897;45.438;12.128;2023-07-13T07:51:54;1.92;;;1.05;;
23449;SDS011;11897;45.438;12.128;2023-07-13T07:54:22;4.47;;;1.23;;
23449;SDS011;11897;45.438;12.128;2023-07-13T07:56:48;2.80;;;1.38;;
23449;SDS011;11897;45.438;12.128;2023-07-13T07:59:15;1.65;;;1.23;;
23449;SDS011;11897;45.438;12.128;2023-07-13T08:01:42;2.13;;;1.15;;
23449;SDS011;11897;45.438;12.128;2023-07-13T08:04:11;3.85;;;1.30;;
23449;SDS011;11897;45.438;12.128;2023-07-13T08:06:38;2.38;;;1.42;;
23449;SDS011;11897;45.438;12.128;2023-07-13T08:09:04;5.63;;;1.20;;
23449;SDS011;11897;45.438;12.128;2023-07-13T08:11:32;5.15;;;1.27;;
23449;SDS011;11897;45.438;12.128;2023-07-13T08:13:59;2.00;;;1.00;;
23449;SDS011;11897;45.438;12.128;2023-07-13T08:16:26;3.85;;;1.27;;
23449;SDS011;11897;45.438;12.128;2023-07-13T08:18:52;3.72;;;1.25;;
23449;SDS011;11897;45.438;12.128;2023-07-13T08:21:20;2.38;;;1.10;;
23449;SDS011;11897;45.438;12.128;2023-07-13T08:23:47;3.05;;;1.27;;
23449;SDS011;11897;45.438;12.128;2023-07-13T08:26:13;3.45;;;1.20;;
23449;SDS011;11897;45.438;12.128;2023-07-13T08:28:42;2.10;;;1.05;;
23449;SDS011;11897;45.438;12.128;2023-07-13T08:31:08;4.95;;;1.50;;
23449;SDS011;11897;45.438;12.128;2023-07-13T08:33:35;5.45;;;1.45;;
23449;SDS011;11897;45.438;12.128;2023-07-13T08:36:03;3.45;;;1.75;;
23449;SDS011;11897;45.438;12.128;2023-07-13T08:38:30;3.75;;;1.27;;
23449;SDS011;11897;45.438;12.128;2023-07-13T08:40:57;4.30;;;1.48;;
23449;SDS011;11897;45.438;12.128;2023-07-13T08:43:25;9.30;;;1.10;;
23449;SDS011;11897;45.438;12.128;2023-07-13T08:45:54;2.47;;;1.02;;
23449;SDS011;11897;45.438;12.128;2023-07-13T08:48:24;3.05;;;1.33;;
23449;SDS011;11897;45.438;12.128;2023-07-13T08:50:54;1.75;;;1.33;;
23449;SDS011;11897;45.438;12.128;2023-07-13T08:53:22;1.58;;;1.00;;
23449;SDS011;11897;45.438;12.128;2023-07-13T08:55:49;3.45;;;1.33;;
23449;SDS011;11897;45.438;12.128;2023-07-13T08:58:18;4.80;;;1.10;;
23449;SDS011;11897;45.438;12.128;2023-07-13T09:00:48;2.72;;;1.20;;
23449;SDS011;11897;45.438;12.128;2023-07-13T09:03:18;5.88;;;1.48;;
23449;SDS011;11897;45.438;12.128;2023-07-13T09:05:47;1.92;;;1.35;;
23449;SDS011;11897;45.438;12.128;2023-07-13T09:08:23;1.55;;;1.23;;
23449;SDS011;11897;45.438;12.128;2023-07-13T09:10:53;3.85;;;1.38;;
23449;SDS011;11897;45.438;12.128;2023-07-13T09:13:27;3.42;;;1.23;;
23449;SDS011;11897;45.438;12.128;2023-07-13T09:15:57;4.50;;;1.00;;
23449;SDS011;11897;45.438;12.128;2023-07-13T09:18:27;5.38;;;1.10;;
23449;SDS011;11897;45.438;12.128;2023-07-13T09:20:55;2.80;;;1.38;;
23449;SDS011;11897;45.438;12.128;2023-07-13T09:23:24;2.00;;;1.20;;
23449;SDS011;11897;45.438;12.128;2023-07-13T09:25:52;2.38;;;1.15;;
23449;SDS011;11897;45.438;12.128;2023-07-13T09:28:23;4.30;;;1.05;;
23449;SDS011;11897;45.438;12.128;2023-07-13T09:30:51;3.30;;;1.30;;
23449;SDS011;11897;45.438;12.128;2023-07-13T09:33:19;3.33;;;1.10;;
23449;SDS011;11897;45.438;12.128;2023-07-13T09:35:47;2.13;;;1.55;;
23449;SDS011;11897;45.438;12.128;2023-07-13T09:38:16;2.00;;;1.10;;
23449;SDS011;11897;45.438;12.128;2023-07-13T09:40:47;5.90;;;1.15;;
23449;SDS011;11897;45.438;12.128;2023-07-13T09:43:16;3.33;;;1.10;;
23449;SDS011;11897;45.438;12.128;2023-07-13T09:45:45;3.58;;;1.17;;
23449;SDS011;11897;45.438;12.128;2023-07-13T09:48:12;7.45;;;1.60;;
23449;SDS011;11897;45.438;12.128;2023-07-13T09:50:40;4.05;;;1.48;;
23449;SDS011;11897;45.438;12.128;2023-07-13T09:53:12;3.72;;;1.45;;
23449;SDS011;11897;45.438;12.128;2023-07-13T09:55:40;8.57;;;1.67;;
23449;SDS011;11897;45.438;12.128;2023-07-13T09:58:09;7.68;;;1.27;;
23449;SDS011;11897;45.438;12.128;2023-07-13T10:00:37;5.00;;;1.20;;
23449;SDS011;11897;45.438;12.128;2023-07-13T10:03:04;5.10;;;1.60;;
23449;SDS011;11897;45.438;12.128;2023-07-13T10:05:38;4.97;;;1.50;;
23449;SDS011;11897;45.438;12.128;2023-07-13T10:08:05;3.03;;;1.10;;
23449;SDS011;11897;45.438;12.128;2023-07-13T10:10:33;3.63;;;1.40;;
23449;SDS011;11897;45.438;12.128;2023-07-13T10:13:01;3.65;;;1.13;;
23449;SDS011;11897;45.438;12.128;2023-07-13T10:15:30;1.88;;;0.93;;
23449;SDS011;11897;45.438;12.128;2023-07-13T10:17:57;3.28;;;0.95;;
23449;SDS011;11897;45.438;12.128;2023-07-13T10:20:24;1.05;;;0.88;;
23449;SDS011;11897;45.438;12.128;2023-07-13T10:22:54;6.47;;;1.30;;
23449;SDS011;11897;45.438;12.128;2023-07-13T10:25:22;8.77;;;1.30;;
23449;SDS011;11897;45.438;12.128;2023-07-13T10:27:51;1.90;;;1.10;;
23449;SDS011;11897;45.438;12.128;2023-07-13T10:30:20;3.33;;;1.15;;
23449;SDS011;11897;45.438;12.128;2023-07-13T10:32:48;3.22;;;1.58;;
23449;SDS011;11897;45.438;12.128;2023-07-13T10:35:16;5.43;;;1.50;;
23449;SDS011;11897;45.438;12.128;2023-07-13T10:37:45;2.42;;;1.52;;
23449;SDS011;11897;45.438;12.128;2023-07-13T10:40:14;3.20;;;1.40;;
23449;SDS011;11897;45.438;12.128;2023-07-13T10:42:43;2.33;;;1.13;;
23449;SDS011;11897;45.438;12.128;2023-07-13T10:45:13;2.60;;;1.10;;
23449;SDS011;11897;45.438;12.128;2023-07-13T10:47:41;3.28;;;1.00;;
23449;SDS011;11897;45.438;12.128;2023-07-13T10:50:09;2.90;;;0.90;;
23449;SDS011;11897;45.438;12.128;2023-07-13T10:52:42;3.58;;;0.93;;
23449;SDS011;11897;45.438;12.128;2023-07-13T10:57:51;5.03;;;1.45;;
23449;SDS011;11897;45.438;12.128;2023-07-13T11:00:19;2.90;;;1.00;;
23449;SDS011;11897;45.438;12.128;2023-07-13T11:02:55;1.58;;;1.15;;
23449;SDS011;11897;45.438;12.128;2023-07-13T11:05:25;6.35;;;1.05;;
23449;SDS011;11897;45.438;12.128;2023-07-13T11:07:54;1.13;;;0.70;;
23449;SDS011;11897;45.438;12.128;2023-07-13T11:13:02;2.38;;;1.10;;
23449;SDS011;11897;45.438;12.128;2023-07-13T11:15:32;1.15;;;0.82;;
23449;SDS011;11897;45.438;12.128;2023-07-13T11:18:01;6.05;;;1.20;;
23449;SDS011;11897;45.438;12.128;2023-07-13T11:20:33;4.55;;;0.95;;
23449;SDS011;11897;45.438;12.128;2023-07-13T11:23:07;1.75;;;1.00;;
23449;SDS011;11897;45.438;12.128;2023-07-13T11:25:35;5.32;;;1.15;;
23449;SDS011;11897;45.438;12.128;2023-07-13T11:28:11;3.65;;;1.00;;
23449;SDS011;11897;45.438;12.128;2023-07-13T11:30:41;1.17;;;0.98;;
23449;SDS011;11897;45.438;12.128;2023-07-13T11:33:11;2.13;;;1.23;;
23449;SDS011;11897;45.438;12.128;2023-07-13T11:35:42;1.88;;;1.00;;
23449;SDS011;11897;45.438;12.128;2023-07-13T11:38:12;2.58;;;1.40;;
23449;SDS011;11897;45.438;12.128;2023-07-13T11:40:40;4.63;;;1.50;;
23449;SDS011;11897;45.438;12.128;2023-07-13T11:43:07;7.25;;;1.65;;
23449;SDS011;11897;45.438;12.128;2023-07-13T11:45:34;4.90;;;1.90;;
23449;SDS011;11897;45.438;12.128;2023-07-13T11:48:02;4.15;;;1.67;;
23449;SDS011;11897;45.438;12.128;2023-07-13T11:50:29;6.25;;;2.10;;
23449;SDS011;11897;45.438;12.128;2023-07-13T11:52:57;2.50;;;1.50;;
23449;SDS011;11897;45.438;12.128;2023-07-13T11:55:25;4.90;;;1.85;;
23449;SDS011;11897;45.438;12.128;2023-07-13T11:57:54;3.58;;;1.70;;
23449;SDS011;11897;45.438;12.128;2023-07-13T12:00:23;3.22;;;1.70;;
23449;SDS011;11897;45.438;12.128;2023-07-13T12:02:53;1.95;;;1.48;;
23449;SDS011;11897;45.438;12.128;2023-07-13T12:05:22;2.70;;;1.77;;
23449;SDS011;11897;45.438;12.128;2023-07-13T12:07:50;3.15;;;1.60;;
23449;SDS011;11897;45.438;12.128;2023-07-13T12:10:18;5.03;;;2.38;;
23449;SDS011;11897;45.438;12.128;2023-07-13T12:12:46;4.43;;;1.70;;
23449;SDS011;11897;45.438;12.128;2023-07-13T12:15:13;3.85;;;1.70;;
23449;SDS011;11897;45.438;12.128;2023-07-13T12:17:40;4.30;;;2.28;;
23449;SDS011;11897;45.438;12.128;2023-07-13T12:20:14;3.65;;;2.38;;
23449;SDS011;11897;45.438;12.128;2023-07-13T12:22:46;7.15;;;2.63;;
23449;SDS011;11897;45.438;12.128;2023-07-13T12:25:13;5.13;;;3.40;;
23449;SDS011;11897;45.438;12.128;2023-07-13T12:27:41;5.63;;;2.90;;
23449;SDS011;11897;45.438;12.128;2023-07-13T12:30:21;3.72;;;2.30;;
23449;SDS011;11897;45.438;12.128;2023-07-13T12:32:55;3.10;;;2.25;;
23449;SDS011;11897;45.438;12.128;2023-07-13T12:35:39;2.55;;;2.08;;
23449;SDS011;11897;45.438;12.128;2023-07-13T12:38:08;5.22;;;2.55;;
23449;SDS011;11897;45.438;12.128;2023-07-13T12:40:38;7.47;;;2.22;;
23449;SDS011;11897;45.438;12.128;2023-07-13T12:43:09;4.72;;;2.40;;
23449;SDS011;11897;45.438;12.128;2023-07-13T12:45:37;4.82;;;2.10;;
23449;SDS011;11897;45.438;12.128;2023-07-13T12:48:04;3.92;;;2.33;;
23449;SDS011;11897;45.438;12.128;2023-07-13T12:50:36;4.65;;;2.03;;
23449;SDS011;11897;45.438;12.128;2023-07-13T12:53:04;2.97;;;2.25;;
23449;SDS011;11897;45.438;12.128;2023-07-13T12:55:39;6.22;;;2.55;;
23449;SDS011;11897;45.438;12.128;2023-07-13T12:58:06;5.68;;;3.03;;
23449;SDS011;11897;45.438;12.128;2023-07-13T13:00:35;4.80;;;2.70;;
23449;SDS011;11897;45.438;12.128;2023-07-13T13:03:12;5.22;;;2.03;;
23449;SDS011;11897;45.438;12.128;2023-07-13T13:05:46;4.10;;;2.15;;
23449;SDS011;11897;45.438;12.128;2023-07-13T13:08:13;6.15;;;2.40;;
23449;SDS011;11897;45.438;12.128;2023-07-13T13:10:41;6.47;;;2.22;;
23449;SDS011;11897;45.438;12.128;2023-07-13T13:13:07;6.05;;;2.63;;
23449;SDS011;11897;45.438;12.128;2023-07-13T13:15:34;2.95;;;2.08;;
23449;SDS011;11897;45.438;12.128;2023-07-13T13:18:02;5.88;;;2.08;;
23449;SDS011;11897;45.438;12.128;2023-07-13T13:20:29;6.57;;;2.10;;
23449;SDS011;11897;45.438;12.128;2023-07-13T13:22:55;4.47;;;2.40;;
23449;SDS011;11897;45.438;12.128;2023-07-13T13:25:22;3.60;;;2.35;;
23449;SDS011;11897;45.438;12.128;2023-07-13T13:27:50;3.67;;;2.42;;
23449;SDS011;11897;45.438;12.128;2023-07-13T13:30:17;8.55;;;2.35;;
23449;SDS011;11897;45.438;12.128;2023-07-13T13:32:45;2.90;;;2.30;;
23449;SDS011;11897;45.438;12.128;2023-07-13T13:35:12;2.88;;;1.90;;
23449;SDS011;11897;45.438;12.128;2023-07-13T13:37:39;6.60;;;2.10;;
23449;SDS011;11897;45.438;12.128;2023-07-13T13:40:13;2.63;;;1.90;;
23449;SDS011;11897;45.438;12.128;2023-07-13T13:42:40;3.30;;;2.00;;
23449;SDS011;11897;45.438;12.128;2023-07-13T13:45:08;8.95;;;2.05;;
23449;SDS011;11897;45.438;12.128;2023-07-13T13:47:35;2.47;;;1.98;;
23449;SDS011;11897;45.438;12.128;2023-07-13T13:50:05;5.15;;;2.22;;
23449;SDS011;11897;45.438;12.128;2023-07-13T13:52:36;3.20;;;2.20;;
23449;SDS011;11897;45.438;12.128;2023-07-13T13:55:04;4.55;;;2.03;;
23449;SDS011;11897;45.438;12.128;2023-07-13T13:57:31;4.60;;;2.20;;
23449;SDS011;11897;45.438;12.128;2023-07-13T13:59:58;5.05;;;2.00;;
23449;SDS011;11897;45.438;12.128;2023-07-13T14:02:27;6.15;;;2.67;;
23449;SDS011;11897;45.438;12.128;2023-07-13T14:04:57;6.55;;;2.08;;
23449;SDS011;11897;45.438;12.128;2023-07-13T14:07:24;2.75;;;2.05;;
23449;SDS011;11897;45.438;12.128;2023-07-13T14:09:52;6.50;;;2.17;;
23449;SDS011;11897;45.438;12.128;2023-07-13T14:12:18;8.30;;;2.53;;
23449;SDS011;11897;45.438;12.128;2023-07-13T14:14:45;6.28;;;2.28;;
23449;SDS011;11897;45.438;12.128;2023-07-13T14:17:17;3.58;;;1.92;;
23449;SDS011;11897;45.438;12.128;2023-07-13T14:19:49;3.55;;;1.88;;
23449;SDS011;11897;45.438;12.128;2023-07-13T14:22:22;6.78;;;2.45;;
23449;SDS011;11897;45.438;12.128;2023-07-13T14:24:48;5.55;;;2.08;;
23449;SDS011;11897;45.438;12.128;2023-07-13T14:27:15;3.58;;;1.83;;
23449;SDS011;11897;45.438;12.128;2023-07-13T14:29:42;3.22;;;2.15;;
23449;SDS011;11897;45.438;12.128;2023-07-13T14:32:10;5.47;;;2.53;;
23449;SDS011;11897;45.438;12.128;2023-07-13T14:34:36;7.68;;;2.20;;
23449;SDS011;11897;45.438;12.128;2023-07-13T14:37:10;3.50;;;2.05;;
23449;SDS011;11897;45.438;12.128;2023-07-13T14:39:39;3.00;;;2.22;;
23449;SDS011;11897;45.438;12.128;2023-07-13T14:42:08;3.55;;;1.90;;
23449;SDS011;11897;45.438;12.128;2023-07-13T14:44:35;7.10;;;2.60;;
23449;SDS011;11897;45.438;12.128;2023-07-13T14:47:03;3.97;;;2.58;;